createdAt,value
2023-01-04T00:02:18.113Z,101483.97
2023-01-04T00:05:04.407Z,101475.25
2023-01-04T00:07:50.205Z,101451.44
2023-01-04T00:10:36.037Z,101472.97
2023-01-04T00:13:21.798Z,101449.13
2023-01-04T00:16:11.715Z,101478.16
2023-01-04T00:18:58.071Z,101476.94
2023-01-04T00:21:44.001Z,101467.19
2023-01-04T00:24:30.201Z,101458.47
2023-01-04T00:27:15.678Z,101469.47
2023-01-04T00:30:01.496Z,101468.84
2023-01-04T00:32:46.781Z,101466.78
2023-01-04T00:39:18.272Z,101455.56
2023-01-04T00:42:07.069Z,101449.16
2023-01-04T00:44:52.805Z,101409.34
2023-01-04T00:47:38.534Z,101460.75
2023-01-04T00:50:23.968Z,101450.59
2023-01-04T00:53:10.852Z,101443.34
2023-01-04T00:56:00.637Z,101452.03
2023-01-04T00:58:46.356Z,101434.44
2023-01-04T01:01:33.305Z,101444.56
2023-01-04T01:04:22.537Z,101382.38
2023-01-04T01:07:08.276Z,101456.81
2023-01-04T01:09:54.091Z,101462.59
2023-01-04T01:12:39.394Z,101468.19
2023-01-04T01:15:25.273Z,101467.16
2023-01-04T01:18:10.788Z,101397.91
2023-01-04T01:20:56.871Z,101432.97
2023-01-04T01:23:43.947Z,101415.16
2023-01-04T01:26:29.914Z,101437.09
2023-01-04T01:29:15.421Z,101457.88
2023-01-04T01:32:01.710Z,101443.97
2023-01-04T01:34:47.483Z,101458.06
2023-01-04T01:37:33.460Z,101436.28
2023-01-04T01:40:18.929Z,101429.88
2023-01-04T01:43:06.337Z,101446.84
2023-01-04T01:45:53.995Z,101449.16
2023-01-04T01:48:40.183Z,101445.41
2023-01-04T01:51:26.611Z,101429.25
2023-01-04T01:54:16.230Z,101389.03
2023-01-04T01:57:04.971Z,101402.50
2023-01-04T01:59:51.695Z,101422.38
2023-01-04T02:02:37.355Z,101399.16
2023-01-04T02:05:24.467Z,101400.16
2023-01-04T02:08:10.223Z,101354.97
2023-01-04T02:10:56.512Z,101348.75
2023-01-04T02:14:01.444Z,101382.88
2023-01-04T02:16:57.237Z,101381.81
2023-01-04T02:20:15.327Z,101368.53
2023-01-04T02:23:25.815Z,101379.66
2023-01-04T02:26:17.390Z,101381.09
2023-01-04T02:29:17.820Z,101362.19
2023-01-04T02:32:40.142Z,101358.44
2023-01-04T02:35:42.155Z,101343.13
2023-01-04T02:38:33.671Z,101333.13
2023-01-04T02:41:34.400Z,101338.25
2023-01-04T02:44:52.248Z,101343.19
2023-01-04T02:47:57.473Z,101281.84
2023-01-04T02:51:26.999Z,101330.06
2023-01-04T02:54:19.267Z,101335.25
2023-01-04T02:58:02.245Z,101324.66
2023-01-04T03:01:15.259Z,101318.03
2023-01-04T03:04:57.396Z,101308.28
2023-01-04T03:07:54.381Z,101309.31
2023-01-04T03:10:49.075Z,101304.97
2023-01-04T03:13:40.664Z,101245.44
2023-01-04T03:16:26.882Z,101279.16
2023-01-04T03:19:14.269Z,101285.72
2023-01-04T03:21:59.890Z,101280.34
2023-01-04T03:25:04.380Z,101271.03
2023-01-04T03:28:09.276Z,101215.19
2023-01-04T03:31:19.349Z,101265.19
2023-01-04T03:34:23.644Z,101240.75
2023-01-04T03:37:24.884Z,101252.13
2023-01-04T03:40:36.694Z,101256.84
2023-01-04T03:43:56.254Z,101239.25
2023-01-04T03:47:11.616Z,101232.78
2023-01-04T03:50:05.500Z,101241.03
2023-01-04T03:52:52.186Z,101229.63
2023-01-04T03:55:39.823Z,101246.34
2023-01-04T03:58:26.020Z,101230.44
2023-01-04T04:01:12.849Z,101233.69
2023-01-04T04:04:17.297Z,101232.56
2023-01-04T04:07:22.423Z,101223.66
2023-01-04T04:10:08.155Z,101228.00
2023-01-04T04:12:54.291Z,101227.44
2023-01-04T04:15:40.056Z,101234.81
2023-01-04T04:18:25.967Z,101230.75
2023-01-04T04:21:28.337Z,101231.66
2023-01-04T04:24:19.792Z,101232.25
2023-01-04T04:27:05.203Z,101221.41
2023-01-04T04:29:51.266Z,101209.78
2023-01-04T04:32:37.170Z,101191.13
2023-01-04T04:35:23.430Z,101201.22
2023-01-04T04:38:08.870Z,101192.19
2023-01-04T04:41:13.352Z,101200.59
2023-01-04T04:43:58.975Z,101182.72
2023-01-04T04:46:45.914Z,101111.72
2023-01-04T04:49:32.580Z,101153.56
2023-01-04T04:52:19.067Z,101128.38
2023-01-04T04:55:05.682Z,101159.56
2023-01-04T04:57:52.164Z,101136.84
2023-01-04T05:00:40.849Z,101152.72
2023-01-04T05:03:27.238Z,101076.53
2023-01-04T05:06:13.532Z,101114.66
2023-01-04T05:08:59.762Z,101092.19
2023-01-04T05:12:03.749Z,101105.00
2023-01-04T05:14:49.407Z,101119.84
2023-01-04T05:17:34.994Z,101101.94
2023-01-04T05:20:20.932Z,101099.41
2023-01-04T05:23:07.324Z,101105.41
2023-01-04T05:25:55.311Z,101084.84
2023-01-04T05:28:41.043Z,101062.81
2023-01-04T05:31:26.728Z,101104.28
2023-01-04T05:34:15.840Z,101090.66
2023-01-04T05:37:04.567Z,101093.34
2023-01-04T05:39:50.095Z,101081.81
2023-01-04T05:42:36.508Z,101066.81
2023-01-04T05:45:22.940Z,101023.44
2023-01-04T05:48:08.825Z,101056.28
2023-01-04T05:50:54.303Z,101056.22
2023-01-04T05:53:39.973Z,101027.94
2023-01-04T05:56:25.910Z,101018.50
2023-01-04T05:59:12.007Z,101059.16
2023-01-04T06:01:58.403Z,101004.19
2023-01-04T06:04:44.551Z,101038.69
2023-01-04T06:07:30.457Z,101037.84
2023-01-04T06:10:16.847Z,100997.06
2023-01-04T06:13:02.720Z,101052.31
2023-01-04T06:15:47.033Z,101052.53
2023-01-04T06:19:23.539Z,101043.25
2023-01-04T06:23:18.316Z,101036.44
2023-01-04T06:31:48.656Z,101007.34
2023-01-04T06:34:34.883Z,101012.06
2023-01-04T06:37:20.381Z,100989.38
2023-01-04T06:40:06.833Z,100985.47
2023-01-04T06:42:52.292Z,100980.50
2023-01-04T06:45:38.454Z,100993.13
2023-01-04T06:48:24.157Z,100980.50
2023-01-04T06:51:10.521Z,100971.78
2023-01-04T06:53:56.104Z,100957.25
2023-01-04T06:56:42.005Z,100969.41
2023-01-04T06:59:27.957Z,100969.28
2023-01-04T07:02:15.916Z,100951.03
2023-01-04T07:05:02.296Z,100948.28
2023-01-04T07:07:48.405Z,100896.03
2023-01-04T07:10:34.009Z,100926.69
2023-01-04T07:13:19.906Z,100912.81
2023-01-04T07:16:05.919Z,100935.19
2023-01-04T07:18:51.868Z,100939.75
2023-01-04T07:21:37.489Z,100901.78
2023-01-04T07:24:29.570Z,100919.66
2023-01-04T07:27:16.258Z,100922.81
2023-01-04T07:30:02.524Z,100939.53
2023-01-04T07:43:43.620Z,100924.50
2023-01-04T07:46:29.485Z,100922.41
2023-01-04T07:49:17.789Z,100908.19
2023-01-04T07:52:04.358Z,100882.56
2023-01-04T07:54:57.214Z,100888.47
2023-01-04T07:57:43.663Z,100870.22
2023-01-04T08:00:29.291Z,100871.06
2023-01-04T08:03:15.492Z,100850.97
2023-01-04T08:06:12.007Z,100867.44
2023-01-04T08:08:49.407Z,100863.56
2023-01-04T08:11:35.523Z,100857.59
2023-01-04T08:14:21.869Z,100823.63
2023-01-04T08:17:07.392Z,100836.41
2023-01-04T08:19:53.491Z,100796.59
2023-01-04T08:22:39.099Z,100806.91
2023-01-04T08:25:24.776Z,100818.75
2023-01-04T08:28:10.385Z,100769.63
2023-01-04T08:30:59.666Z,100806.72
2023-01-04T08:33:45.822Z,100788.34
2023-01-04T08:36:34.181Z,100795.63
2023-01-04T08:39:21.901Z,100786.19
2023-01-04T08:42:19.191Z,100786.88
2023-01-04T08:45:08.766Z,100731.72
2023-01-04T08:47:54.734Z,100736.59
2023-01-04T08:50:40.309Z,100754.84
2023-01-04T08:53:27.120Z,100745.41
2023-01-04T08:56:14.935Z,100722.09
2023-01-04T08:59:01.245Z,100709.72
2023-01-04T09:01:47.166Z,100716.88
2023-01-04T09:04:33.251Z,100658.44
2023-01-04T09:07:18.832Z,100704.97
2023-01-04T09:10:05.167Z,100678.81
2023-01-04T09:12:51.174Z,100701.88
2023-01-04T09:15:37.488Z,100690.78
2023-01-04T09:18:32.463Z,100697.34
2023-01-04T09:21:21.330Z,100657.88
2023-01-04T09:24:07.184Z,100631.72
2023-01-04T09:26:55.835Z,100669.78
2023-01-04T09:29:41.607Z,100606.13
2023-01-04T09:32:27.452Z,100683.63
2023-01-04T09:35:12.854Z,100640.06
2023-01-04T09:37:59.016Z,100657.78
2023-01-04T09:41:01.455Z,100666.69
2023-01-04T09:43:59.037Z,100601.78
2023-01-04T09:46:52.024Z,100656.03
2023-01-04T09:49:43.476Z,100550.13
2023-01-04T09:52:52.136Z,100630.19
2023-01-04T09:55:41.613Z,100604.09
2023-01-04T09:58:39.871Z,100586.56
2023-01-04T10:01:33.264Z,100540.81
2023-01-04T10:04:29.435Z,100560.88
2023-01-04T10:07:25.222Z,100516.13
2023-01-04T10:10:23.053Z,100543.75
2023-01-04T10:13:30.660Z,100543.00
2023-01-04T10:17:11.922Z,100534.63
2023-01-04T10:23:18.594Z,100511.59
2023-01-04T10:26:14.737Z,100502.47
2023-01-04T10:29:26.953Z,100497.53
2023-01-04T10:32:20.611Z,100494.81
2023-01-04T10:35:22.480Z,100485.09
2023-01-04T10:38:17.299Z,100478.28
2023-01-04T10:41:21.671Z,100464.72
2023-01-04T10:44:18.973Z,100459.94
2023-01-04T10:47:10.113Z,100437.13
2023-01-04T10:49:58.968Z,100447.50
2023-01-04T10:52:51.220Z,100445.59
2023-01-04T10:55:39.419Z,100435.34
2023-01-04T10:58:31.003Z,100439.16
2023-01-04T11:01:30.296Z,100422.34
2023-01-04T11:04:36.707Z,100411.25
2023-01-04T11:07:37.079Z,100353.84
2023-01-04T11:10:40.203Z,100404.00
2023-01-04T11:13:26.367Z,100317.75
2023-01-04T11:16:11.935Z,100394.28
2023-01-04T11:18:58.580Z,100381.56
2023-01-04T11:21:52.561Z,100371.50
2023-01-04T11:24:38.954Z,100334.53
2023-01-04T11:27:27.747Z,100314.97
2023-01-04T11:30:16.383Z,100345.75
2023-01-04T11:33:21.872Z,100340.63
2023-01-04T11:36:09.728Z,100326.50
2023-01-04T11:38:56.694Z,100326.75
2023-01-04T11:42:02.938Z,100284.63
2023-01-04T11:44:59.393Z,100311.31
2023-01-04T11:48:02.407Z,100304.53
2023-01-04T11:50:51.287Z,100313.50
2023-01-04T11:53:37.888Z,100302.63
2023-01-04T11:56:24.725Z,100292.31
2023-01-04T11:59:24.900Z,100270.84
2023-01-04T12:02:59.517Z,100294.22
2023-01-04T12:05:32.141Z,100277.09
2023-01-04T12:08:34.540Z,100265.16
2023-01-04T12:11:29.998Z,100271.69
2023-01-04T12:14:21.138Z,100227.66
2023-01-04T12:17:38.302Z,100191.81
2023-01-04T12:20:28.907Z,100231.75
2023-01-04T12:23:15.277Z,100217.34
2023-01-04T12:26:01.908Z,100123.94
2023-01-04T12:28:50.660Z,100185.00
2023-01-04T12:31:36.640Z,100174.44
2023-01-04T12:34:22.244Z,100143.19
2023-01-04T12:37:08.372Z,100147.00
2023-01-04T12:39:54.183Z,100105.47
2023-01-04T12:43:14.865Z,100150.00
2023-01-04T12:46:50.697Z,100139.38
2023-01-04T12:49:39.252Z,100130.69
2023-01-04T12:52:48.049Z,100120.13
2023-01-04T12:55:31.525Z,100089.72
2023-01-04T13:01:36.673Z,100062.56
2023-01-04T13:04:41.823Z,100063.09
2023-01-04T13:07:31.035Z,100083.19
2023-01-04T13:10:26.224Z,100036.53
2023-01-04T13:13:26.862Z,100016.97
2023-01-04T13:21:16.702Z,100002.31
2023-01-04T13:24:22.757Z,99938.31
2023-01-04T13:27:13.188Z,100007.47
2023-01-04T13:29:59.398Z,99995.50
2023-01-04T13:33:24.457Z,99956.69
2023-01-04T13:36:02.248Z,99944.22
2023-01-04T13:38:48.777Z,99910.06
2023-01-04T13:41:35.127Z,100014.41
2023-01-04T13:47:57.696Z,99882.72
2023-01-04T13:50:49.093Z,99983.97
2023-01-04T13:53:35.184Z,99967.44
2023-01-04T13:56:24.298Z,99954.97
2023-01-04T13:59:10.252Z,99868.84
2023-01-04T14:01:57.980Z,99941.41
2023-01-04T14:04:46.120Z,99853.63
2023-01-04T14:07:35.196Z,99896.69
2023-01-04T14:10:26.554Z,99893.44
2023-01-04T14:13:20.995Z,99920.25
2023-01-04T14:16:14.502Z,99953.53
2023-01-04T14:19:27.327Z,99833.50
2023-01-04T14:22:38.772Z,99939.09
2023-01-04T14:25:31.012Z,99923.38
2023-01-04T14:28:20.053Z,99929.28
2023-01-04T14:31:12.036Z,99922.53
2023-01-04T14:33:58.264Z,99891.06
2023-01-04T14:36:44.693Z,99811.72
2023-01-04T14:39:33.224Z,99794.63
2023-01-04T14:42:27.410Z,99807.34
2023-01-04T14:45:14.168Z,99822.69
2023-01-04T14:48:00.557Z,99843.00
2023-01-04T14:50:46.161Z,99822.47
2023-01-04T14:53:32.496Z,99760.72
2023-01-04T14:56:19.238Z,99784.81
2023-01-04T14:59:07.775Z,99800.22
2023-01-04T15:01:54.719Z,99843.94
2023-01-04T15:04:41.042Z,99803.06
2023-01-04T15:07:36.446Z,99790.88
2023-01-04T15:10:26.175Z,99758.94
2023-01-04T15:13:11.980Z,99725.94
2023-01-04T15:15:58.980Z,99815.63
2023-01-04T15:18:47.994Z,99812.38
2023-01-04T15:21:40.540Z,99729.06
2023-01-04T15:24:27.254Z,99769.56
2023-01-04T15:27:13.510Z,99734.06
2023-01-04T15:29:59.369Z,99715.44
2023-01-04T15:32:45.671Z,99732.13
2023-01-04T15:35:32.159Z,99749.97
2023-01-04T15:38:20.664Z,99730.75
2023-01-04T15:41:36.834Z,99721.84
2023-01-04T15:44:31.697Z,99792.88
2023-01-04T15:47:30.238Z,99652.53
2023-01-04T15:54:49.524Z,99752.94
2023-01-04T15:57:44.256Z,99756.75
2023-01-04T16:00:42.979Z,99756.97
2023-01-04T16:03:34.738Z,99689.84
2023-01-04T16:10:07.612Z,99721.50
2023-01-04T16:12:56.943Z,99723.44
2023-01-04T16:15:42.821Z,99708.34
2023-01-04T16:18:32.343Z,99694.09
2023-01-04T16:21:21.233Z,99702.16
2023-01-04T16:24:29.519Z,99693.47
2023-01-04T16:27:15.778Z,99673.00
2023-01-04T16:30:02.503Z,99675.59
2023-01-04T16:32:50.178Z,99663.75
2023-01-04T16:35:36.112Z,99674.38
2023-01-04T16:38:21.795Z,99646.03
2023-01-04T16:41:10.462Z,99685.44
2023-01-04T16:43:59.514Z,99681.59
2023-01-04T16:46:45.529Z,99651.50
2023-01-04T16:49:32.617Z,99662.25
2023-01-04T16:57:56.373Z,99634.28
2023-01-04T17:00:43.743Z,99630.22
2023-01-04T17:03:29.954Z,99646.38
2023-01-04T17:06:24.798Z,99599.91
2023-01-04T17:09:13.312Z,99643.09
2023-01-04T17:16:20.803Z,99627.00
2023-01-04T17:32:46.961Z,99574.28
2023-01-04T17:35:58.383Z,99541.53
2023-01-04T17:38:51.792Z,99484.38
2023-01-04T17:42:40.801Z,99503.53
2023-01-04T17:46:55.736Z,99459.69
2023-01-04T18:37:49.145Z,99523.44
2023-01-04T19:49:17.333Z,99437.28
2023-01-04T20:00:19.939Z,99318.31
2023-01-04T20:13:23.007Z,99276.97
2023-01-04T20:16:56.644Z,99264.47
2023-01-04T20:20:22.548Z,99337.56
2023-01-04T23:51:02.036Z,99154.72
